sensor_id;sensor_type;location;lat;lon;timestamp;P1;durP1;ratioP1;P2;durP2;ratioP2
59207;SDS011;44977;53.132;6.408;2023-03-01T00:04:48;22.55;;;20.15;;
59207;SDS011;44977;53.132;6.408;2023-03-01T00:09:49;23.30;;;20.33;;
59207;SDS011;44977;53.132;6.408;2023-03-01T00:14:50;23.05;;;20.23;;
59207;SDS011;44977;53.132;6.408;2023-03-01T00:19:51;22.90;;;20.50;;
59207;SDS011;44977;53.132;6.408;2023-03-01T00:24:51;20.42;;;18.10;;
59207;SDS011;44977;53.132;6.408;2023-03-01T00:29:52;22.67;;;19.38;;
59207;SDS011;44977;53.132;6.408;2023-03-01T00:34:53;21.00;;;18.80;;
59207;SDS011;44977;53.132;6.408;2023-03-01T00:39:56;23.30;;;19.45;;
59207;SDS011;44977;53.132;6.408;2023-03-01T00:44:57;21.45;;;19.10;;
59207;SDS011;44977;53.132;6.408;2023-03-01T00:49:57;23.20;;;19.52;;
59207;SDS011;44977;53.132;6.408;2023-03-01T00:54:58;21.80;;;18.77;;
59207;SDS011;44977;53.132;6.408;2023-03-01T00:59:59;21.88;;;19.55;;
59207;SDS011;44977;53.132;6.408;2023-03-01T01:05:00;21.73;;;19.27;;
59207;SDS011;44977;53.132;6.408;2023-03-01T01:10:01;21.58;;;19.45;;
59207;SDS011;44977;53.132;6.408;2023-03-01T01:15:01;19.88;;;17.77;;
59207;SDS011;44977;53.132;6.408;2023-03-01T01:20:02;22.05;;;18.48;;
59207;SDS011;44977;53.132;6.408;2023-03-01T01:25:03;21.98;;;18.67;;
59207;SDS011;44977;53.132;6.408;2023-03-01T01:30:04;20.70;;;18.33;;
59207;SDS011;44977;53.132;6.408;2023-03-01T01:35:06;21.42;;;19.13;;
59207;SDS011;44977;53.132;6.408;2023-03-01T01:40:07;23.85;;;21.35;;
59207;SDS011;44977;53.132;6.408;2023-03-01T01:50:32;23.45;;;19.95;;
59207;SDS011;44977;53.132;6.408;2023-03-01T01:55:39;24.10;;;19.63;;
59207;SDS011;44977;53.132;6.408;2023-03-01T02:00:43;25.40;;;21.52;;
59207;SDS011;44977;53.132;6.408;2023-03-01T02:11:04;24.52;;;21.52;;
59207;SDS011;44977;53.132;6.408;2023-03-01T02:16:09;26.80;;;23.23;;
59207;SDS011;44977;53.132;6.408;2023-03-01T02:21:17;29.83;;;24.08;;
59207;SDS011;44977;53.132;6.408;2023-03-01T02:26:45;26.80;;;23.80;;
59207;SDS011;44977;53.132;6.408;2023-03-01T02:31:50;41.47;;;24.17;;
59207;SDS011;44977;53.132;6.408;2023-03-01T02:36:53;23.42;;;20.92;;
59207;SDS011;44977;53.132;6.408;2023-03-01T02:42:04;24.85;;;21.42;;
59207;SDS011;44977;53.132;6.408;2023-03-01T02:47:06;25.05;;;21.65;;
59207;SDS011;44977;53.132;6.408;2023-03-01T02:57:33;22.65;;;19.70;;
59207;SDS011;44977;53.132;6.408;2023-03-01T03:02:35;27.35;;;20.58;;
59207;SDS011;44977;53.132;6.408;2023-03-01T03:07:37;23.83;;;19.88;;
59207;SDS011;44977;53.132;6.408;2023-03-01T03:12:40;24.73;;;20.67;;
59207;SDS011;44977;53.132;6.408;2023-03-01T03:17:41;34.92;;;22.38;;
59207;SDS011;44977;53.132;6.408;2023-03-01T03:22:42;25.52;;;21.52;;
59207;SDS011;44977;53.132;6.408;2023-03-01T03:27:44;30.20;;;21.77;;
59207;SDS011;44977;53.132;6.408;2023-03-01T03:32:46;24.67;;;21.98;;
59207;SDS011;44977;53.132;6.408;2023-03-01T03:37:52;24.73;;;21.98;;
59207;SDS011;44977;53.132;6.408;2023-03-01T03:43:03;28.08;;;23.55;;
59207;SDS011;44977;53.132;6.408;2023-03-01T03:48:06;34.22;;;25.45;;
59207;SDS011;44977;53.132;6.408;2023-03-01T03:53:10;32.13;;;24.88;;
59207;SDS011;44977;53.132;6.408;2023-03-01T03:58:11;30.13;;;24.67;;
59207;SDS011;44977;53.132;6.408;2023-03-01T04:03:13;26.52;;;23.52;;
59207;SDS011;44977;53.132;6.408;2023-03-01T04:08:16;28.58;;;25.13;;
59207;SDS011;44977;53.132;6.408;2023-03-01T04:13:21;29.83;;;25.02;;
59207;SDS011;44977;53.132;6.408;2023-03-01T04:18:22;26.75;;;23.92;;
59207;SDS011;44977;53.132;6.408;2023-03-01T04:23:25;28.15;;;24.05;;
59207;SDS011;44977;53.132;6.408;2023-03-01T04:28:27;27.02;;;23.77;;
59207;SDS011;44977;53.132;6.408;2023-03-01T04:33:29;28.58;;;23.48;;
59207;SDS011;44977;53.132;6.408;2023-03-01T04:38:29;26.88;;;23.27;;
59207;SDS011;44977;53.132;6.408;2023-03-01T04:43:30;26.25;;;23.00;;
59207;SDS011;44977;53.132;6.408;2023-03-01T04:48:31;24.77;;;22.08;;
59207;SDS011;44977;53.132;6.408;2023-03-01T04:53:32;25.45;;;21.33;;
59207;SDS011;44977;53.132;6.408;2023-03-01T04:58:33;26.40;;;23.15;;
59207;SDS011;44977;53.132;6.408;2023-03-01T05:03:34;26.23;;;22.20;;
59207;SDS011;44977;53.132;6.408;2023-03-01T05:08:34;23.98;;;21.38;;
59207;SDS011;44977;53.132;6.408;2023-03-01T05:13:37;23.08;;;20.10;;
59207;SDS011;44977;53.132;6.408;2023-03-01T05:18:39;23.08;;;20.20;;
59207;SDS011;44977;53.132;6.408;2023-03-01T05:23:40;16.20;;;7.35;;
59207;SDS011;44977;53.132;6.408;2023-03-01T05:28:41;23.15;;;19.10;;
59207;SDS011;44977;53.132;6.408;2023-03-01T05:33:41;23.33;;;20.35;;
59207;SDS011;44977;53.132;6.408;2023-03-01T05:38:43;21.83;;;18.30;;
59207;SDS011;44977;53.132;6.408;2023-03-01T05:43:44;22.30;;;18.73;;
59207;SDS011;44977;53.132;6.408;2023-03-01T05:48:44;15.77;;;7.18;;
59207;SDS011;44977;53.132;6.408;2023-03-01T05:53:45;23.88;;;20.40;;
59207;SDS011;44977;53.132;6.408;2023-03-01T05:58:47;22.63;;;19.30;;
59207;SDS011;44977;53.132;6.408;2023-03-01T06:03:49;22.48;;;18.88;;
59207;SDS011;44977;53.132;6.408;2023-03-01T06:08:50;21.63;;;19.17;;
59207;SDS011;44977;53.132;6.408;2023-03-01T06:13:51;20.92;;;17.80;;
59207;SDS011;44977;53.132;6.408;2023-03-01T06:18:53;18.48;;;16.38;;
59207;SDS011;44977;53.132;6.408;2023-03-01T06:23:53;17.85;;;15.73;;
59207;SDS011;44977;53.132;6.408;2023-03-01T06:28:54;18.20;;;16.13;;
59207;SDS011;44977;53.132;6.408;2023-03-01T06:33:55;18.90;;;16.95;;
59207;SDS011;44977;53.132;6.408;2023-03-01T06:38:55;19.23;;;17.23;;
59207;SDS011;44977;53.132;6.408;2023-03-01T06:43:56;18.40;;;16.52;;
59207;SDS011;44977;53.132;6.408;2023-03-01T06:48:57;17.23;;;15.43;;
59207;SDS011;44977;53.132;6.408;2023-03-01T06:53:57;15.50;;;13.73;;
59207;SDS011;44977;53.132;6.408;2023-03-01T06:58:58;16.33;;;14.60;;
59207;SDS011;44977;53.132;6.408;2023-03-01T07:03:59;16.95;;;14.90;;
59207;SDS011;44977;53.132;6.408;2023-03-01T07:08:59;17.95;;;16.05;;
59207;SDS011;44977;53.132;6.408;2023-03-01T07:14:00;20.50;;;17.60;;
59207;SDS011;44977;53.132;6.408;2023-03-01T07:19:01;15.43;;;6.63;;
59207;SDS011;44977;53.132;6.408;2023-03-01T07:24:01;20.63;;;18.23;;
59207;SDS011;44977;53.132;6.408;2023-03-01T07:29:03;24.08;;;20.95;;
59207;SDS011;44977;53.132;6.408;2023-03-01T07:34:04;14.48;;;6.95;;
59207;SDS011;44977;53.132;6.408;2023-03-01T07:39:05;21.60;;;19.13;;
59207;SDS011;44977;53.132;6.408;2023-03-01T07:44:09;22.02;;;19.70;;
59207;SDS011;44977;53.132;6.408;2023-03-01T07:49:10;24.08;;;21.30;;
59207;SDS011;44977;53.132;6.408;2023-03-01T07:54:11;24.77;;;20.90;;
59207;SDS011;44977;53.132;6.408;2023-03-01T07:59:12;29.35;;;26.15;;
59207;SDS011;44977;53.132;6.408;2023-03-01T08:04:12;31.02;;;27.73;;
59207;SDS011;44977;53.132;6.408;2023-03-01T08:09:13;36.72;;;31.88;;
59207;SDS011;44977;53.132;6.408;2023-03-01T08:14:14;36.13;;;32.33;;
59207;SDS011;44977;53.132;6.408;2023-03-01T08:19:15;36.17;;;32.30;;
59207;SDS011;44977;53.132;6.408;2023-03-01T08:24:15;35.65;;;31.67;;
59207;SDS011;44977;53.132;6.408;2023-03-01T08:29:16;37.13;;;33.00;;
59207;SDS011;44977;53.132;6.408;2023-03-01T08:34:17;34.83;;;31.00;;
59207;SDS011;44977;53.132;6.408;2023-03-01T08:39:19;33.63;;;30.00;;
59207;SDS011;44977;53.132;6.408;2023-03-01T08:44:20;34.97;;;30.52;;
59207;SDS011;44977;53.132;6.408;2023-03-01T08:49:21;34.88;;;30.83;;
59207;SDS011;44977;53.132;6.408;2023-03-01T08:54:22;34.55;;;29.45;;
59207;SDS011;44977;53.132;6.408;2023-03-01T08:59:22;32.00;;;27.77;;
59207;SDS011;44977;53.132;6.408;2023-03-01T09:04:25;36.35;;;29.08;;
59207;SDS011;44977;53.132;6.408;2023-03-01T09:09:25;31.75;;;28.20;;
59207;SDS011;44977;53.132;6.408;2023-03-01T09:14:26;32.10;;;28.05;;
59207;SDS011;44977;53.132;6.408;2023-03-01T09:19:27;29.92;;;26.65;;
59207;SDS011;44977;53.132;6.408;2023-03-01T09:24:28;29.70;;;25.75;;
59207;SDS011;44977;53.132;6.408;2023-03-01T09:29:29;31.58;;;27.13;;
59207;SDS011;44977;53.132;6.408;2023-03-01T09:34:29;35.20;;;27.98;;
59207;SDS011;44977;53.132;6.408;2023-03-01T09:39:31;30.95;;;27.05;;
59207;SDS011;44977;53.132;6.408;2023-03-01T09:44:48;32.65;;;25.75;;
59207;SDS011;44977;53.132;6.408;2023-03-01T09:49:58;27.35;;;23.63;;
59207;SDS011;44977;53.132;6.408;2023-03-01T09:55:20;23.63;;;21.05;;
59207;SDS011;44977;53.132;6.408;2023-03-01T10:00:29;25.50;;;22.20;;
59207;SDS011;44977;53.132;6.408;2023-03-01T10:17:17;21.65;;;17.58;;
59207;SDS011;44977;53.132;6.408;2023-03-01T10:27:34;19.40;;;15.90;;
59207;SDS011;44977;53.132;6.408;2023-03-01T10:32:43;18.05;;;15.10;;
59207;SDS011;44977;53.132;6.408;2023-03-01T10:43:04;17.45;;;15.65;;
59207;SDS011;44977;53.132;6.408;2023-03-01T10:48:10;20.48;;;17.27;;
59207;SDS011;44977;53.132;6.408;2023-03-01T10:58:26;17.67;;;14.90;;
59207;SDS011;44977;53.132;6.408;2023-03-01T11:03:29;17.23;;;14.23;;
59207;SDS011;44977;53.132;6.408;2023-03-01T11:08:50;18.50;;;15.75;;
59207;SDS011;44977;53.132;6.408;2023-03-01T11:19:27;17.25;;;13.90;;
59207;SDS011;44977;53.132;6.408;2023-03-01T11:24:37;13.55;;;11.30;;
59207;SDS011;44977;53.132;6.408;2023-03-01T11:29:44;16.02;;;13.80;;
59207;SDS011;44977;53.132;6.408;2023-03-01T11:34:53;17.42;;;14.57;;
59207;SDS011;44977;53.132;6.408;2023-03-01T11:50:56;19.05;;;14.05;;
59207;SDS011;44977;53.132;6.408;2023-03-01T11:56:09;18.77;;;15.45;;
59207;SDS011;44977;53.132;6.408;2023-03-01T12:01:55;17.23;;;15.30;;
59207;SDS011;44977;53.132;6.408;2023-03-01T12:07:18;19.50;;;15.55;;
59207;SDS011;44977;53.132;6.408;2023-03-01T12:12:34;16.08;;;13.48;;
59207;SDS011;44977;53.132;6.408;2023-03-01T12:23:05;16.17;;;14.23;;
59207;SDS011;44977;53.132;6.408;2023-03-01T12:33:35;16.25;;;13.77;;
59207;SDS011;44977;53.132;6.408;2023-03-01T12:38:46;17.23;;;15.20;;
59207;SDS011;44977;53.132;6.408;2023-03-01T12:43:58;15.10;;;12.85;;
59207;SDS011;44977;53.132;6.408;2023-03-01T12:49:14;15.63;;;13.40;;
59207;SDS011;44977;53.132;6.408;2023-03-01T12:54:28;17.25;;;14.20;;
59207;SDS011;44977;53.132;6.408;2023-03-01T13:00:32;13.80;;;12.32;;
59207;SDS011;44977;53.132;6.408;2023-03-01T13:10:52;15.38;;;13.20;;
59207;SDS011;44977;53.132;6.408;2023-03-01T13:16:00;15.48;;;13.75;;
59207;SDS011;44977;53.132;6.408;2023-03-01T13:21:36;15.90;;;13.45;;
59207;SDS011;44977;53.132;6.408;2023-03-01T13:27:08;15.68;;;13.25;;
59207;SDS011;44977;53.132;6.408;2023-03-01T13:32:19;17.05;;;13.85;;
59207;SDS011;44977;53.132;6.408;2023-03-01T13:37:24;16.52;;;13.95;;
59207;SDS011;44977;53.132;6.408;2023-03-01T13:42:32;16.17;;;13.18;;
59207;SDS011;44977;53.132;6.408;2023-03-01T13:47:38;15.63;;;14.00;;
59207;SDS011;44977;53.132;6.408;2023-03-01T13:52:40;17.55;;;14.38;;
59207;SDS011;44977;53.132;6.408;2023-03-01T13:57:51;15.27;;;13.23;;
59207;SDS011;44977;53.132;6.408;2023-03-01T14:03:03;16.85;;;14.40;;
59207;SDS011;44977;53.132;6.408;2023-03-01T14:08:19;16.88;;;14.90;;
59207;SDS011;44977;53.132;6.408;2023-03-01T14:18:49;18.48;;;14.15;;
59207;SDS011;44977;53.132;6.408;2023-03-01T14:23:58;16.85;;;14.07;;
59207;SDS011;44977;53.132;6.408;2023-03-01T14:28:59;16.63;;;13.73;;
59207;SDS011;44977;53.132;6.408;2023-03-01T14:34:00;15.52;;;13.15;;
59207;SDS011;44977;53.132;6.408;2023-03-01T14:39:01;14.85;;;13.13;;
59207;SDS011;44977;53.132;6.408;2023-03-01T14:44:19;16.05;;;13.75;;
59207;SDS011;44977;53.132;6.408;2023-03-01T14:49:25;16.30;;;14.52;;
59207;SDS011;44977;53.132;6.408;2023-03-01T14:59:36;17.17;;;15.35;;
59207;SDS011;44977;53.132;6.408;2023-03-01T15:04:36;17.58;;;15.55;;
59207;SDS011;44977;53.132;6.408;2023-03-01T15:09:39;18.40;;;15.65;;
59207;SDS011;44977;53.132;6.408;2023-03-01T15:14:41;18.92;;;16.92;;
59207;SDS011;44977;53.132;6.408;2023-03-01T15:19:45;19.02;;;16.60;;
59207;SDS011;44977;53.132;6.408;2023-03-01T15:24:48;18.95;;;16.83;;
59207;SDS011;44977;53.132;6.408;2023-03-01T15:29:50;21.23;;;18.02;;
59207;SDS011;44977;53.132;6.408;2023-03-01T15:34:55;18.60;;;16.60;;
59207;SDS011;44977;53.132;6.408;2023-03-01T15:39:57;19.38;;;16.17;;
59207;SDS011;44977;53.132;6.408;2023-03-01T15:45:11;17.80;;;15.90;;
59207;SDS011;44977;53.132;6.408;2023-03-01T15:50:23;18.95;;;16.45;;
59207;SDS011;44977;53.132;6.408;2023-03-01T15:55:30;18.35;;;16.15;;
59207;SDS011;44977;53.132;6.408;2023-03-01T16:00:33;19.70;;;16.57;;
59207;SDS011;44977;53.132;6.408;2023-03-01T16:05:34;17.92;;;15.88;;
59207;SDS011;44977;53.132;6.408;2023-03-01T16:10:36;20.15;;;17.00;;
59207;SDS011;44977;53.132;6.408;2023-03-01T16:15:37;19.33;;;15.93;;
59207;SDS011;44977;53.132;6.408;2023-03-01T16:20:39;19.00;;;16.92;;
59207;SDS011;44977;53.132;6.408;2023-03-01T16:25:40;19.00;;;16.85;;
59207;SDS011;44977;53.132;6.408;2023-03-01T16:30:45;20.75;;;17.40;;
59207;SDS011;44977;53.132;6.408;2023-03-01T16:35:48;21.10;;;18.45;;
59207;SDS011;44977;53.132;6.408;2023-03-01T16:40:50;17.85;;;15.48;;
59207;SDS011;44977;53.132;6.408;2023-03-01T16:45:52;19.17;;;16.75;;
59207;SDS011;44977;53.132;6.408;2023-03-01T16:50:56;19.98;;;17.02;;
59207;SDS011;44977;53.132;6.408;2023-03-01T16:56:01;21.70;;;17.70;;
59207;SDS011;44977;53.132;6.408;2023-03-01T17:01:04;22.35;;;19.95;;
59207;SDS011;44977;53.132;6.408;2023-03-01T17:06:11;21.10;;;18.48;;
59207;SDS011;44977;53.132;6.408;2023-03-01T17:11:14;18.55;;;16.55;;
59207;SDS011;44977;53.132;6.408;2023-03-01T17:16:17;20.05;;;17.52;;
59207;SDS011;44977;53.132;6.408;2023-03-01T17:21:19;19.92;;;17.83;;
59207;SDS011;44977;53.132;6.408;2023-03-01T17:26:20;19.10;;;17.10;;
59207;SDS011;44977;53.132;6.408;2023-03-01T17:31:21;18.15;;;16.25;;
59207;SDS011;44977;53.132;6.408;2023-03-01T17:36:22;20.73;;;16.20;;
59207;SDS011;44977;53.132;6.408;2023-03-01T17:41:23;16.63;;;14.85;;
59207;SDS011;44977;53.132;6.408;2023-03-01T17:46:24;18.55;;;16.23;;
59207;SDS011;44977;53.132;6.408;2023-03-01T17:51:25;17.60;;;15.57;;
59207;SDS011;44977;53.132;6.408;2023-03-01T17:56:26;17.38;;;15.38;;
59207;SDS011;44977;53.132;6.408;2023-03-01T18:01:27;18.02;;;16.13;;
59207;SDS011;44977;53.132;6.408;2023-03-01T18:06:28;16.60;;;14.50;;
59207;SDS011;44977;53.132;6.408;2023-03-01T18:11:28;17.75;;;15.90;;
59207;SDS011;44977;53.132;6.408;2023-03-01T18:16:29;16.98;;;15.18;;
59207;SDS011;44977;53.132;6.408;2023-03-01T18:21:30;17.42;;;15.50;;
59207;SDS011;44977;53.132;6.408;2023-03-01T18:26:31;17.67;;;15.88;;
59207;SDS011;44977;53.132;6.408;2023-03-01T18:31:32;17.85;;;15.95;;
59207;SDS011;44977;53.132;6.408;2023-03-01T18:36:33;19.23;;;17.23;;
59207;SDS011;44977;53.132;6.408;2023-03-01T18:41:35;20.17;;;17.98;;
59207;SDS011;44977;53.132;6.408;2023-03-01T18:46:36;19.75;;;17.75;;
59207;SDS011;44977;53.132;6.408;2023-03-01T18:51:38;19.33;;;17.38;;
59207;SDS011;44977;53.132;6.408;2023-03-01T18:56:40;20.70;;;18.40;;
59207;SDS011;44977;53.132;6.408;2023-03-01T19:01:40;20.65;;;18.50;;
59207;SDS011;44977;53.132;6.408;2023-03-01T19:06:42;20.70;;;18.50;;
59207;SDS011;44977;53.132;6.408;2023-03-01T19:11:42;20.92;;;18.80;;
59207;SDS011;44977;53.132;6.408;2023-03-01T19:16:43;19.63;;;17.63;;
59207;SDS011;44977;53.132;6.408;2023-03-01T19:21:44;18.65;;;16.85;;
59207;SDS011;44977;53.132;6.408;2023-03-01T19:26:45;20.45;;;18.23;;
59207;SDS011;44977;53.132;6.408;2023-03-01T19:31:45;20.27;;;18.10;;
59207;SDS011;44977;53.132;6.408;2023-03-01T19:36:46;19.05;;;17.05;;
59207;SDS011;44977;53.132;6.408;2023-03-01T19:41:47;19.52;;;17.50;;
59207;SDS011;44977;53.132;6.408;2023-03-01T19:46:48;19.55;;;17.52;;
59207;SDS011;44977;53.132;6.408;2023-03-01T19:51:50;22.77;;;20.33;;
59207;SDS011;44977;53.132;6.408;2023-03-01T19:56:50;21.92;;;19.70;;
59207;SDS011;44977;53.132;6.408;2023-03-01T20:01:51;20.92;;;18.73;;
59207;SDS011;44977;53.132;6.408;2023-03-01T20:06:52;21.55;;;19.38;;
59207;SDS011;44977;53.132;6.408;2023-03-01T20:11:53;23.90;;;21.40;;
59207;SDS011;44977;53.132;6.408;2023-03-01T20:16:54;22.85;;;20.35;;
59207;SDS011;44977;53.132;6.408;2023-03-01T20:21:54;26.55;;;23.75;;
59207;SDS011;44977;53.132;6.408;2023-03-01T20:26:55;26.85;;;23.80;;
59207;SDS011;44977;53.132;6.408;2023-03-01T20:31:56;27.05;;;24.15;;
59207;SDS011;44977;53.132;6.408;2023-03-01T20:36:56;28.65;;;25.08;;
59207;SDS011;44977;53.132;6.408;2023-03-01T20:42:00;28.70;;;25.42;;
59207;SDS011;44977;53.132;6.408;2023-03-01T20:47:01;30.48;;;26.35;;
59207;SDS011;44977;53.132;6.408;2023-03-01T20:52:01;30.40;;;27.15;;
59207;SDS011;44977;53.132;6.408;2023-03-01T20:57:02;29.40;;;25.63;;
59207;SDS011;44977;53.132;6.408;2023-03-01T21:02:03;27.42;;;24.45;;
59207;SDS011;44977;53.132;6.408;2023-03-01T21:07:04;25.85;;;23.08;;
59207;SDS011;44977;53.132;6.408;2023-03-01T21:12:04;27.00;;;24.15;;
59207;SDS011;44977;53.132;6.408;2023-03-01T21:17:05;28.83;;;25.67;;
59207;SDS011;44977;53.132;6.408;2023-03-01T21:22:14;27.70;;;24.42;;
59207;SDS011;44977;53.132;6.408;2023-03-01T21:27:15;29.98;;;26.77;;
59207;SDS011;44977;53.132;6.408;2023-03-01T21:32:16;27.55;;;24.58;;
59207;SDS011;44977;53.132;6.408;2023-03-01T21:37:17;29.40;;;26.30;;
59207;SDS011;44977;53.132;6.408;2023-03-01T21:42:21;28.63;;;25.48;;
59207;SDS011;44977;53.132;6.408;2023-03-01T21:47:25;28.20;;;24.98;;
59207;SDS011;44977;53.132;6.408;2023-03-01T21:52:25;28.55;;;25.45;;
59207;SDS011;44977;53.132;6.408;2023-03-01T21:57:26;28.67;;;25.48;;
59207;SDS011;44977;53.132;6.408;2023-03-01T22:02:27;25.73;;;22.20;;
59207;SDS011;44977;53.132;6.408;2023-03-01T22:07:29;24.63;;;22.00;;
59207;SDS011;44977;53.132;6.408;2023-03-01T22:12:30;25.40;;;21.00;;
59207;SDS011;44977;53.132;6.408;2023-03-01T22:17:30;21.45;;;18.42;;
59207;SDS011;44977;53.132;6.408;2023-03-01T22:22:31;21.98;;;19.63;;
59207;SDS011;44977;53.132;6.408;2023-03-01T22:27:32;21.98;;;18.35;;
59207;SDS011;44977;53.132;6.408;2023-03-01T22:32:33;20.25;;;17.95;;
59207;SDS011;44977;53.132;6.408;2023-03-01T22:37:34;22.58;;;18.75;;
59207;SDS011;44977;53.132;6.408;2023-03-01T22:42:35;21.08;;;18.50;;
59207;SDS011;44977;53.132;6.408;2023-03-01T22:47:35;21.25;;;18.17;;
59207;SDS011;44977;53.132;6.408;2023-03-01T22:52:36;20.70;;;17.73;;
59207;SDS011;44977;53.132;6.408;2023-03-01T22:57:38;20.85;;;18.00;;
59207;SDS011;44977;53.132;6.408;2023-03-01T23:02:39;20.45;;;18.25;;
59207;SDS011;44977;53.132;6.408;2023-03-01T23:07:40;22.95;;;19.17;;
59207;SDS011;44977;53.132;6.408;2023-03-01T23:12:44;23.52;;;20.38;;
59207;SDS011;44977;53.132;6.408;2023-03-01T23:17:45;24.55;;;21.83;;
59207;SDS011;44977;53.132;6.408;2023-03-01T23:22:45;22.35;;;19.65;;
59207;SDS011;44977;53.132;6.408;2023-03-01T23:27:46;24.52;;;21.80;;
59207;SDS011;44977;53.132;6.408;2023-03-01T23:32:46;26.95;;;23.50;;
59207;SDS011;44977;53.132;6.408;2023-03-01T23:37:47;27.95;;;23.80;;
59207;SDS011;44977;53.132;6.408;2023-03-01T23:42:48;27.23;;;23.33;;
59207;SDS011;44977;53.132;6.408;2023-03-01T23:47:48;28.17;;;23.17;;
59207;SDS011;44977;53.132;6.408;2023-03-01T23:52:49;24.83;;;22.17;;
59207;SDS011;44977;53.132;6.408;2023-03-01T23:57:50;25.85;;;22.38;;
